createdAt,value
2022-10-26T00:03:24.916Z,12.25
2022-10-26T00:08:27.040Z,12.48
2022-10-26T00:13:29.309Z,11.40
2022-10-26T00:18:31.434Z,12.95
2022-10-26T00:23:34.095Z,11.38
2022-10-26T00:28:36.564Z,11.15
2022-10-26T00:33:40.561Z,11.77
2022-10-26T00:38:42.716Z,12.00
2022-10-26T00:43:45.159Z,11.68
2022-10-26T00:48:51.273Z,13.57
2022-10-26T00:53:55.087Z,13.10
2022-10-26T00:59:04.423Z,13.10
2022-10-26T01:04:06.954Z,13.40
2022-10-26T01:09:11.166Z,13.87
2022-10-26T01:14:16.140Z,14.65
2022-10-26T01:19:23.919Z,13.32
2022-10-26T01:24:58.728Z,12.52
2022-10-26T01:35:35.362Z,13.82
2022-10-26T01:40:46.352Z,13.35
2022-10-26T01:45:52.268Z,12.63
2022-10-26T01:50:56.215Z,13.98
2022-10-26T01:55:59.412Z,13.02
2022-10-26T02:01:13.808Z,13.48
2022-10-26T02:06:21.437Z,13.45
2022-10-26T02:11:39.471Z,14.75
2022-10-26T02:17:04.801Z,14.45
2022-10-26T02:22:19.646Z,15.30
2022-10-26T02:27:30.232Z,16.30
2022-10-26T02:32:37.681Z,16.73
2022-10-26T02:37:42.321Z,17.20
2022-10-26T02:42:46.650Z,17.42
2022-10-26T02:47:49.375Z,18.73
2022-10-26T02:53:10.005Z,19.02
2022-10-26T02:58:19.394Z,18.20
2022-10-26T03:03:22.397Z,18.42
2022-10-26T03:08:26.611Z,18.20
2022-10-26T03:13:35.709Z,17.60
2022-10-26T03:18:37.885Z,18.98
2022-10-26T03:23:39.997Z,18.33
2022-10-26T03:28:42.123Z,19.92
2022-10-26T03:33:44.251Z,18.65
2022-10-26T03:38:46.359Z,19.38
2022-10-26T03:43:48.448Z,19.65
2022-10-26T03:48:50.591Z,20.45
2022-10-26T03:53:52.709Z,19.08
2022-10-26T03:58:54.826Z,19.25
2022-10-26T04:03:56.997Z,17.80
2022-10-26T04:08:59.162Z,18.00
2022-10-26T04:14:01.286Z,17.20
2022-10-26T04:19:03.401Z,20.27
2022-10-26T04:24:05.864Z,19.63
2022-10-26T04:29:07.987Z,20.50
2022-10-26T04:34:10.088Z,22.10
2022-10-26T04:39:12.193Z,20.42
2022-10-26T04:44:14.298Z,19.92
2022-10-26T04:49:16.404Z,21.38
2022-10-26T04:54:18.555Z,21.38
2022-10-26T04:59:20.730Z,22.85
2022-10-26T05:04:22.839Z,22.05
2022-10-26T05:09:24.941Z,22.60
2022-10-26T05:14:27.033Z,21.85
2022-10-26T05:19:29.180Z,21.35
2022-10-26T05:24:31.285Z,20.20
2022-10-26T05:29:33.416Z,19.10
2022-10-26T05:34:38.237Z,19.65
2022-10-26T05:39:42.944Z,18.23
2022-10-26T05:44:45.038Z,19.30
2022-10-26T05:49:47.131Z,19.75
2022-10-26T05:54:49.271Z,22.48
2022-10-26T05:59:51.681Z,22.52
2022-10-26T06:04:56.829Z,22.50
2022-10-26T06:09:59.163Z,21.63
2022-10-26T06:15:01.556Z,21.65
2022-10-26T06:20:32.082Z,21.27
2022-10-26T06:25:55.151Z,21.05
2022-10-26T06:30:57.997Z,20.25
2022-10-26T06:36:05.918Z,19.27
2022-10-26T06:41:08.180Z,19.48
2022-10-26T06:46:10.233Z,19.40
2022-10-26T06:51:15.563Z,18.55
2022-10-26T06:56:17.781Z,17.60
2022-10-26T07:01:20.332Z,16.50
2022-10-26T07:06:22.566Z,14.73
2022-10-26T07:11:24.685Z,14.77
2022-10-26T07:16:26.807Z,15.35
2022-10-26T07:21:28.930Z,14.27
2022-10-26T07:26:31.046Z,14.07
2022-10-26T07:31:33.209Z,13.02
2022-10-26T07:36:35.408Z,13.18
2022-10-26T07:41:37.516Z,12.70
2022-10-26T07:46:39.631Z,14.35
2022-10-26T07:51:41.759Z,13.75
2022-10-26T07:56:43.868Z,13.63
2022-10-26T08:01:46.110Z,13.82
2022-10-26T08:06:48.273Z,13.57
2022-10-26T08:11:53.153Z,13.27
2022-10-26T08:16:55.260Z,12.27
2022-10-26T08:21:57.394Z,12.38
2022-10-26T08:26:59.512Z,12.23
2022-10-26T08:32:01.609Z,12.32
2022-10-26T08:37:03.771Z,11.32
2022-10-26T08:42:22.956Z,10.77
2022-10-26T08:47:43.706Z,9.63
2022-10-26T08:53:21.341Z,8.43
2022-10-26T08:58:31.690Z,8.73
2022-10-26T09:03:33.949Z,7.13
2022-10-26T09:09:04.132Z,6.47
2022-10-26T09:14:19.280Z,6.20
2022-10-26T09:19:34.236Z,5.57
2022-10-26T09:25:02.883Z,5.35
2022-10-26T09:30:18.896Z,4.10
2022-10-26T09:35:31.201Z,3.33
2022-10-26T09:40:51.775Z,3.33
2022-10-26T09:45:54.170Z,2.67
2022-10-26T09:50:59.261Z,2.85
2022-10-26T09:56:13.297Z,2.35
2022-10-26T10:01:27.475Z,2.42
2022-10-26T10:06:32.684Z,2.22
2022-10-26T10:12:15.492Z,2.33
2022-10-26T10:17:22.717Z,2.17
2022-10-26T10:22:26.340Z,2.15
2022-10-26T10:27:30.317Z,2.60
2022-10-26T10:32:35.635Z,2.42
2022-10-26T10:37:44.021Z,2.33
2022-10-26T10:42:47.549Z,2.10
2022-10-26T10:48:05.579Z,1.92
2022-10-26T10:53:20.898Z,1.90
2022-10-26T10:58:34.784Z,2.13
2022-10-26T11:04:02.142Z,1.60
2022-10-26T11:09:13.417Z,1.90
2022-10-26T11:14:28.441Z,2.15
2022-10-26T11:19:43.805Z,1.70
2022-10-26T11:25:11.830Z,2.00
2022-10-26T11:30:18.885Z,1.80
2022-10-26T11:35:32.614Z,1.90
2022-10-26T11:40:47.026Z,2.00
2022-10-26T11:46:09.289Z,1.85
2022-10-26T11:51:22.798Z,2.37
2022-10-26T11:56:34.241Z,2.10
2022-10-26T12:01:36.671Z,2.00
2022-10-26T12:12:09.343Z,1.85
2022-10-26T12:17:26.352Z,2.05
2022-10-26T12:22:36.712Z,2.30
2022-10-26T12:27:38.815Z,2.30
2022-10-26T12:32:43.654Z,2.20
2022-10-26T12:37:46.038Z,2.10
2022-10-26T12:42:48.145Z,2.22
2022-10-26T12:47:50.463Z,2.30
